Time;durP1;ratioP1;P1;durP2;ratioP2;P2;SDS_P1;SDS_P2;PMS_P1;PMS_P2;Temp;Humidity;BMP_temperature;BMP_pressure;BME280_temperature;BME280_humidity;BME280_pressure;Samples;Min_cycle;Max_cycle;Signal;HPM_P1;HPM_P2
2021/07/11 00:00:31;;;;;;;7.32;6.10;;;;;;;17.80;76.53;98858.09;3605634;40;20048;-74
2021/07/11 00:02:59;;;;;;;7.32;6.72;;;;;;;17.80;76.45;98858.91;3651060;23;20043;-72
2021/07/11 00:05:29;;;;;;;7.10;6.40;;;;;;;17.82;76.41;98859.47;3599645;40;20032;-72
2021/07/11 00:07:57;;;;;;;6.72;6.00;;;;;;;17.80;76.64;98861.59;3600817;39;20031;-72
2021/07/11 00:10:26;;;;;;;7.25;6.53;;;;;;;17.81;76.28;98857.06;3599997;39;20032;-72
2021/07/11 00:12:55;;;;;;;7.80;6.07;;;;;;;17.79;76.58;98857.28;3600667;40;20035;-72
2021/07/11 00:15:24;;;;;;;6.05;5.55;;;;;;;17.79;76.13;98856.47;3600154;39;20024;-73
2021/07/11 00:17:53;;;;;;;6.25;5.72;;;;;;;17.81;76.48;98857.06;3599525;40;20576;-72
2021/07/11 00:20:22;;;;;;;6.97;5.57;;;;;;;17.88;76.10;98856.88;3600164;39;20422;-73
2021/07/11 00:22:51;;;;;;;6.07;5.10;;;;;;;17.85;76.16;98854.72;3599407;40;20027;-72
2021/07/11 00:25:19;;;;;;;7.18;5.10;;;;;;;17.83;75.80;98853.06;3600367;40;20047;-73
2021/07/11 00:27:47;;;;;;;5.95;5.32;;;;;;;17.75;76.26;98848.09;3600236;39;20059;-72
2021/07/11 00:30:17;;;;;;;6.85;4.97;;;;;;;17.78;76.36;98844.97;3600847;39;20028;-72
2021/07/11 00:32:45;;;;;;;4.68;4.07;;;;;;;17.72;76.24;98837.88;3600099;39;20028;-73
2021/07/11 00:35:13;;;;;;;4.13;3.80;;;;;;;17.72;76.01;98834.41;3600290;39;20033;-73
2021/07/11 00:37:43;;;;;;;4.88;4.47;;;;;;;17.70;76.08;98833.81;3600328;39;20028;-72
2021/07/11 00:40:17;;;;;;;;;;;;;;;17.64;75.92;98840.13;3590646;40;20040;-72
2021/07/11 00:42:46;;;;;;;5.47;4.22;;;;;;;17.67;76.12;98842.28;3591419;40;20264;-72
2021/07/11 00:45:15;;;;;;;8.98;4.20;;;;;;;17.66;75.85;98844.16;3583861;40;20029;-71
2021/07/11 00:47:46;;;;;;;5.45;4.22;;;;;;;17.69;76.19;98840.22;3583029;40;20028;-73
2021/07/11 00:50:17;;;;;;;5.28;4.10;;;;;;;17.74;75.60;98827.78;3595445;40;20092;-72
2021/07/11 00:52:49;;;;;;;5.43;4.40;;;;;;;17.73;75.64;98830.66;3596764;40;20053;-71
2021/07/11 00:55:25;;;;;;;6.50;4.38;;;;;;;17.65;75.63;98831.84;3588235;40;20021;-72
2021/07/11 00:57:53;;;;;;;6.80;5.45;;;;;;;17.63;75.50;98833.94;3596939;40;20061;-72
2021/07/11 01:00:25;;;;;;;6.72;4.75;;;;;;;17.54;75.89;98827.34;3590173;40;20037;-71
2021/07/11 01:03:08;;;;;;;5.20;4.70;;;;;;;17.56;76.16;98827.94;3585019;40;20061;-71
2021/07/11 01:05:41;;;;;;;5.50;5.00;;;;;;;17.58;76.36;98831.97;3595192;40;20029;-71
2021/07/11 01:08:19;;;;;;;7.32;5.20;;;;;;;17.61;75.73;98829.88;3598734;40;20032;-70
2021/07/11 01:10:52;;;;;;;5.82;4.88;;;;;;;17.56;76.37;98831.41;3599451;40;20422;-71
2021/07/11 01:13:23;;;;;;;5.82;5.32;;;;;;;17.60;75.76;98828.28;3598409;40;20029;-71
2021/07/11 01:15:59;;;;;;;7.03;4.85;;;;;;;17.58;76.07;98831.16;3598497;40;20332;-70
2021/07/11 01:18:28;;;;;;;5.13;4.70;;;;;;;17.56;75.83;98826.06;3606127;40;20036;-71
2021/07/11 01:20:59;;;;;;;5.03;4.57;;;;;;;17.53;75.62;98839.91;3606837;39;20059;-70
2021/07/11 01:23:43;;;;;;;5.10;4.63;;;;;;;17.54;75.47;98844.19;3594295;40;20044;-70
2021/07/11 01:26:16;;;;;;;5.65;4.00;;;;;;;17.45;75.60;98844.81;3608726;40;20048;-72
2021/07/11 01:28:47;;;;;;;8.90;4.70;;;;;;;17.45;75.46;98850.16;3605678;39;20048;-72
2021/07/11 01:31:19;;;;;;;5.93;4.10;;;;;;;17.50;75.59;98848.38;3601851;39;20052;-71
2021/07/11 01:33:49;;;;;;;5.43;4.32;;;;;;;17.43;75.18;98847.72;3602677;40;20047;-72
2021/07/11 01:36:18;;;;;;;5.57;4.45;;;;;;;17.42;75.38;98848.75;3607290;40;20043;-72
2021/07/11 01:38:51;;;;;;;4.97;4.50;;;;;;;17.33;75.59;98850.97;3605393;40;20028;-71
2021/07/11 01:41:22;;;;;;;5.68;4.25;;;;;;;17.34;75.78;98846.44;3601294;40;20040;-72
2021/07/11 01:43:53;;;;;;;5.53;4.70;;;;;;;17.31;75.56;98849.59;3601016;39;20083;-72
2021/07/11 01:46:24;;;;;;;4.20;3.80;;;;;;;17.28;75.68;98848.19;3588833;40;20317;-71
2021/07/11 01:48:56;;;;;;;5.10;4.68;;;;;;;17.21;75.54;98850.19;3601548;39;20039;-72
2021/07/11 01:51:26;;;;;;;5.57;4.97;;;;;;;17.15;75.80;98853.81;3590205;40;20110;-72
2021/07/11 01:53:54;;;;;;;5.45;4.55;;;;;;;17.14;76.12;98860.16;3598104;40;20024;-72
2021/07/11 01:56:24;;;;;;;8.50;4.40;;;;;;;17.15;75.96;98859.16;3600601;39;20048;-71
2021/07/11 01:58:53;;;;;;;6.13;4.30;;;;;;;17.11;75.95;98857.19;3600657;39;20036;-72
2021/07/11 02:01:24;;;;;;;5.60;4.90;;;;;;;17.09;76.56;98858.19;3599814;40;20037;-72
2021/07/11 02:04:00;;;;;;;6.05;4.65;;;;;;;17.05;75.96;98857.03;3599195;40;20044;-72
2021/07/11 02:06:29;;;;;;;8.23;5.03;;;;;;;17.04;76.43;98855.44;3599116;40;20297;-72
2021/07/11 02:09:09;;;;;;;5.15;4.72;;;;;;;17.08;76.43;98855.78;3598978;40;20044;-72
2021/07/11 02:11:41;;;;;;;5.75;5.05;;;;;;;17.09;76.45;98854.72;3599596;40;20024;-72
2021/07/11 02:14:14;;;;;;;7.18;4.43;;;;;;;17.13;76.18;98855.88;3599106;40;20316;-71
2021/07/11 02:16:52;;;;;;;6.85;5.30;;;;;;;17.18;76.49;98866.66;3599637;40;20091;-71
2021/07/11 02:19:29;;;;;;;5.35;4.63;;;;;;;17.14;76.51;98870.03;3599467;40;20044;-72
2021/07/11 02:21:57;;;;;;;5.32;4.82;;;;;;;17.14;76.19;98868.19;3599922;39;20028;-72
2021/07/11 02:24:28;;;;;;;5.97;4.82;;;;;;;17.12;76.40;98872.16;3599425;40;20296;-72
2021/07/11 02:27:00;;;;;;;7.03;4.60;;;;;;;17.11;76.33;98878.53;3600099;39;20047;-71
2021/07/11 02:29:34;;;;;;;7.80;5.22;;;;;;;17.12;76.13;98870.28;3599292;40;20403;-70
2021/07/11 02:32:08;;;;;;;7.28;4.80;;;;;;;17.09;75.94;98871.56;3600886;39;20044;-72
2021/07/11 02:34:38;;;;;;;4.93;4.40;;;;;;;17.01;76.17;98871.09;3601707;40;20051;-72
2021/07/11 02:37:11;;;;;;;5.15;4.72;;;;;;;16.92;76.21;98867.97;3602671;39;20036;-71
2021/07/11 02:39:45;;;;;;;6.32;4.40;;;;;;;16.92;75.96;98870.63;3601885;40;20051;-71
2021/07/11 02:42:15;;;;;;;5.07;4.57;;;;;;;16.94;76.60;98875.72;3602295;39;20363;-72
2021/07/11 02:44:47;;;;;;;5.03;4.43;;;;;;;16.98;76.14;98872.41;3601978;39;20040;-72
2021/07/11 02:47:21;;;;;;;5.40;4.88;;;;;;;16.97;76.37;98875.28;3601239;40;20062;-71
2021/07/11 02:49:57;;;;;;;10.63;4.72;;;;;;;16.94;75.94;98883.75;3601596;39;20048;-72
2021/07/11 02:52:27;;;;;;;6.25;4.95;;;;;;;16.89;76.33;98886.31;3602453;39;20076;-72
2021/07/11 02:55:00;;;;;;;8.75;5.05;;;;;;;16.92;76.41;98888.50;3600772;40;20024;-72
2021/07/11 02:57:32;;;;;;;9.10;5.03;;;;;;;16.91;76.32;98889.56;3600514;40;20040;-71
2021/07/11 03:00:05;;;;;;;7.35;5.25;;;;;;;16.87;76.18;98885.72;3588987;40;20049;-72
2021/07/11 03:02:40;;;;;;;5.30;4.80;;;;;;;16.87;76.27;98896.41;3601241;39;20044;-71
2021/07/11 03:05:13;;;;;;;8.77;5.43;;;;;;;16.80;76.51;98883.16;3590251;40;20413;-71
2021/07/11 03:07:42;;;;;;;6.05;5.45;;;;;;;16.79;76.41;98893.03;3600495;40;20050;-70
2021/07/11 03:10:16;;;;;;;6.70;5.60;;;;;;;16.79;76.55;98895.69;3601551;40;20056;-70
2021/07/11 03:12:47;;;;;;;7.90;6.10;;;;;;;16.81;76.72;98890.94;3602314;39;20040;-72
2021/07/11 03:15:17;;;;;;;7.28;6.57;;;;;;;16.78;76.57;98896.75;3601713;39;20032;-71
2021/07/11 03:17:48;;;;;;;7.13;6.43;;;;;;;16.70;76.54;98891.72;3600812;40;20060;-72
2021/07/11 03:20:17;;;;;;;9.13;7.07;;;;;;;16.66;76.60;98893.22;3600156;40;20056;-72
2021/07/11 03:22:46;;;;;;;8.10;6.97;;;;;;;16.68;76.81;98891.13;3600693;40;20028;-71
2021/07/11 03:25:14;;;;;;;9.45;7.13;;;;;;;16.61;77.18;98890.41;3601365;40;20028;-72
2021/07/11 03:27:51;;;;;;;9.52;6.93;;;;;;;16.60;77.34;98894.13;3600459;40;20052;-70
2021/07/11 03:30:21;;;;;;;7.55;6.85;;;;;;;16.58;76.86;98904.22;3601137;40;20044;-71
2021/07/11 03:32:52;;;;;;;8.75;7.85;;;;;;;16.59;76.98;98903.19;3602303;39;20080;-70
2021/07/11 03:35:29;;;;;;;14.68;9.10;;;;;;;16.50;76.69;98900.03;3601447;40;20036;-70
2021/07/11 03:38:04;;;;;;;9.65;8.75;;;;;;;16.49;76.78;98906.41;3600509;40;20044;-72
2021/07/11 03:40:37;;;;;;;10.88;9.43;;;;;;;16.50;77.27;98912.56;3600292;40;20178;-69
2021/07/11 03:43:09;;;;;;;9.77;8.77;;;;;;;16.54;76.82;98913.75;3600949;40;20046;-70
2021/07/11 03:45:38;;;;;;;10.45;8.98;;;;;;;16.50;76.59;98913.38;3601250;39;20032;-70
2021/07/11 03:48:11;;;;;;;11.75;10.55;;;;;;;16.45;77.11;98909.75;3601156;39;20421;-70
2021/07/11 03:50:45;;;;;;;13.98;10.40;;;;;;;16.43;76.95;98914.50;3600854;39;20331;-70
2021/07/11 03:53:18;;;;;;;12.45;10.73;;;;;;;16.46;77.29;98911.41;3600132;39;20050;-71
2021/07/11 03:55:48;;;;;;;10.63;9.60;;;;;;;16.40;76.98;98914.97;3598918;40;20047;-71
2021/07/11 03:58:20;;;;;;;15.13;9.98;;;;;;;16.41;77.23;98913.91;3601926;39;20306;-71
2021/07/11 04:00:49;;;;;;;11.30;8.45;;;;;;;16.48;77.65;98914.63;3599631;40;20052;-71
2021/07/11 04:03:18;;;;;;;10.70;9.15;;;;;;;16.51;77.27;98914.19;3600873;39;20112;-71
2021/07/11 04:05:47;;;;;;;13.93;9.20;;;;;;;16.51;77.23;98915.00;3600804;39;20071;-71
2021/07/11 04:08:21;;;;;;;9.80;8.43;;;;;;;16.49;76.90;98924.25;3599284;40;20050;-70
2021/07/11 04:10:51;;;;;;;9.38;8.40;;;;;;;16.56;77.26;98924.97;3600652;39;20040;-71
2021/07/11 04:13:20;;;;;;;9.77;8.65;;;;;;;16.57;76.82;98931.94;3600035;39;20314;-69
2021/07/11 04:15:52;;;;;;;9.70;8.70;;;;;;;16.59;77.01;98935.22;3599981;39;20088;-70
2021/07/11 04:18:22;;;;;;;13.20;8.25;;;;;;;16.60;77.17;98939.50;3600554;39;20349;-71
2021/07/11 04:20:53;;;;;;;10.23;8.80;;;;;;;16.63;77.24;98932.91;3601453;39;20050;-71
2021/07/11 04:23:23;;;;;;;11.05;9.13;;;;;;;16.63;76.93;98940.91;3601528;39;20092;-71
2021/07/11 04:25:56;;;;;;;11.80;8.63;;;;;;;16.72;77.26;98939.53;3601418;39;20506;-72
2021/07/11 04:28:29;;;;;;;12.98;8.00;;;;;;;16.72;77.06;98936.84;3602063;39;20056;-71
2021/07/11 04:30:59;;;;;;;8.85;7.95;;;;;;;16.73;76.47;98938.50;3600855;40;20051;-72
2021/07/11 04:33:27;;;;;;;9.45;7.80;;;;;;;16.65;76.49;98936.94;3601786;40;20083;-72
2021/07/11 04:35:58;;;;;;;8.93;7.80;;;;;;;16.66;76.72;98933.25;3602289;39;20048;-72
2021/07/11 04:38:26;;;;;;;10.50;8.65;;;;;;;16.71;76.83;98943.25;3602988;39;20332;-70
2021/07/11 04:40:56;;;;;;;9.70;8.70;;;;;;;16.76;77.39;98944.22;3602246;40;20055;-72
2021/07/11 04:43:26;;;;;;;10.38;8.60;;;;;;;16.78;77.25;98944.00;3602562;40;20076;-71
2021/07/11 04:45:54;;;;;;;9.30;8.25;;;;;;;16.83;76.93;98944.13;3601787;39;20048;-72
2021/07/11 04:48:23;;;;;;;9.68;8.68;;;;;;;16.78;76.95;98944.00;3589704;40;20012;-72
2021/07/11 04:50:50;;;;;;;9.75;8.55;;;;;;;16.87;76.87;98949.81;3579513;40;20051;-72
2021/07/11 04:53:19;;;;;;;10.32;8.05;;;;;;;16.88;76.97;98943.41;3581699;40;20080;-71
2021/07/11 04:55:48;;;;;;;10.50;8.05;;;;;;;16.89;77.02;98945.84;3590190;40;20064;-71
2021/07/11 04:58:16;;;;;;;8.70;7.88;;;;;;;16.96;76.55;98941.22;3582087;40;20031;-71
2021/07/11 05:00:46;;;;;;;11.45;8.05;;;;;;;16.98;76.53;98944.50;3582527;40;20094;-70
2021/07/11 05:03:13;;;;;;;14.27;8.20;;;;;;;16.91;76.88;98943.78;3590750;40;20055;-70
2021/07/11 05:05:41;;;;;;;8.63;7.72;;;;;;;16.94;76.49;98947.81;3590257;40;20048;-72
2021/07/11 05:08:09;;;;;;;10.63;8.38;;;;;;;16.94;77.00;98937.16;3590206;40;20056;-72
2021/07/11 05:10:37;;;;;;;9.15;7.97;;;;;;;16.91;76.82;98950.97;3591296;40;20056;-70
2021/07/11 05:13:04;;;;;;;9.75;8.75;;;;;;;16.83;76.83;98946.78;3590745;40;20048;-70
2021/07/11 05:15:32;;;;;;;9.88;8.88;;;;;;;16.90;77.30;98950.16;3590241;40;20099;-71
2021/07/11 05:18:04;;;;;;;12.30;9.85;;;;;;;16.87;76.64;98947.94;3581680;40;20044;-70
2021/07/11 05:20:32;;;;;;;10.48;9.23;;;;;;;16.87;77.05;98947.16;3589446;40;20055;-71
2021/07/11 05:23:03;;;;;;;13.48;9.65;;;;;;;16.83;76.99;98946.78;3580222;40;20157;-70
2021/07/11 05:25:32;;;;;;;12.40;10.07;;;;;;;16.86;77.49;98950.84;3592120;40;20048;-71
2021/07/11 05:28:01;;;;;;;13.82;9.95;;;;;;;16.84;77.50;98951.88;3600981;39;20389;-72
2021/07/11 05:30:28;;;;;;;10.77;9.77;;;;;;;16.81;77.64;98940.84;3601463;39;20052;-71
2021/07/11 05:32:58;;;;;;;12.10;9.95;;;;;;;16.88;77.69;98952.25;3599785;40;20122;-71
2021/07/11 05:35:27;;;;;;;11.50;10.32;;;;;;;16.92;77.58;98953.41;3601027;39;20040;-70
2021/07/11 05:37:55;;;;;;;14.68;10.32;;;;;;;16.95;77.09;98958.28;3600545;39;20052;-72
2021/07/11 05:40:23;;;;;;;12.20;10.68;;;;;;;16.96;77.07;98959.09;3599571;40;20064;-72
2021/07/11 05:42:51;;;;;;;13.85;10.57;;;;;;;16.89;77.22;98950.38;3600172;40;20040;-72
2021/07/11 05:45:19;;;;;;;16.05;10.20;;;;;;;16.93;77.48;98960.38;3599141;40;20056;-72
2021/07/11 05:47:47;;;;;;;11.43;10.25;;;;;;;16.91;77.19;98962.47;3600585;39;20036;-72
2021/07/11 05:50:16;;;;;;;11.10;9.90;;;;;;;16.89;77.16;98969.06;3599677;40;20048;-72
2021/07/11 05:52:45;;;;;;;13.02;11.35;;;;;;;16.90;77.54;98965.34;3601944;39;20073;-72
2021/07/11 05:55:13;;;;;;;11.30;10.10;;;;;;;16.79;77.19;98966.97;3600879;39;20047;-72
2021/07/11 05:57:41;;;;;;;12.95;10.32;;;;;;;16.75;77.37;98966.63;3600514;40;20054;-71
2021/07/11 06:00:12;;;;;;;12.70;10.52;;;;;;;16.72;77.50;98964.38;3599995;40;20051;-71
2021/07/11 06:02:40;;;;;;;13.27;11.35;;;;;;;16.72;77.89;98969.69;3657263;22;20148;-71
2021/07/11 06:05:08;;;;;;;12.38;10.23;;;;;;;16.76;77.47;98970.09;3597705;40;20029;-70
2021/07/11 06:07:36;;;;;;;12.82;10.70;;;;;;;16.79;77.94;98972.31;3598531;39;20056;-70
2021/07/11 06:10:07;;;;;;;11.73;9.93;;;;;;;16.78;77.59;98974.16;3599625;40;20048;-71
2021/07/11 06:12:34;;;;;;;12.05;9.25;;;;;;;16.78;77.37;98976.84;3600005;40;20079;-70
2021/07/11 06:15:04;;;;;;;12.52;10.07;;;;;;;16.80;77.48;98973.94;3590594;40;20055;-72
2021/07/11 06:17:33;;;;;;;16.25;12.18;;;;;;;16.77;77.05;98974.38;3601685;40;20044;-71
2021/07/11 06:20:02;;;;;;;15.07;12.48;;;;;;;16.75;77.23;98973.81;3602367;40;20044;-71
2021/07/11 06:22:30;;;;;;;15.80;13.45;;;;;;;16.84;76.24;98975.91;3592814;40;20106;-70
2021/07/11 06:24:58;;;;;;;16.30;13.35;;;;;;;16.92;76.19;98979.31;3602355;40;20040;-70
2021/07/11 06:27:27;;;;;;;16.10;13.68;;;;;;;16.96;75.56;98977.81;3601923;40;20080;-71
2021/07/11 06:29:55;;;;;;;16.20;12.88;;;;;;;17.08;75.61;98987.44;3602367;40;20565;-70
2021/07/11 06:32:22;;;;;;;14.32;12.82;;;;;;;17.09;75.43;98977.59;3602390;40;20104;-70
2021/07/11 06:34:50;;;;;;;15.68;13.88;;;;;;;17.12;74.94;98982.47;3592857;40;20129;-71
2021/07/11 06:37:18;;;;;;;16.63;13.95;;;;;;;17.11;74.86;98980.84;3602065;40;20051;-71
2021/07/11 06:39:46;;;;;;;16.63;13.98;;;;;;;17.12;74.66;98987.81;3591727;40;20412;-71
2021/07/11 06:42:14;;;;;;;15.98;14.30;;;;;;;17.19;74.27;98982.38;3601455;40;20047;-70
2021/07/11 06:44:43;;;;;;;16.98;13.35;;;;;;;17.26;74.48;98985.72;3593340;40;20317;-70
2021/07/11 06:47:11;;;;;;;14.10;12.63;;;;;;;17.34;74.47;98982.72;3602779;40;20052;-71
2021/07/11 06:49:39;;;;;;;16.50;12.90;;;;;;;17.44;73.65;98985.63;3602944;40;20057;-71
2021/07/11 06:52:07;;;;;;;17.20;12.95;;;;;;;17.47;73.60;98992.34;3600680;40;20132;-70
2021/07/11 06:54:35;;;;;;;14.20;12.70;;;;;;;17.47;73.37;98990.53;3600321;40;20044;-70
2021/07/11 06:57:05;;;;;;;13.00;11.60;;;;;;;17.44;73.27;98990.97;3600349;40;20309;-70
2021/07/11 06:59:33;;;;;;;13.82;11.95;;;;;;;17.49;72.64;98996.44;3600237;40;20310;-70
2021/07/11 07:02:02;;;;;;;13.43;11.25;;;;;;;17.52;72.66;99001.31;3590545;40;20058;-70
2021/07/11 07:04:30;;;;;;;14.65;10.90;;;;;;;17.60;72.43;99000.16;3599563;40;20051;-72
2021/07/11 07:06:58;;;;;;;14.00;10.52;;;;;;;17.66;72.25;98999.22;3599574;40;20044;-70
2021/07/11 07:09:28;;;;;;;17.13;12.32;;;;;;;17.72;71.86;99003.63;3590119;40;20153;-70
2021/07/11 07:11:56;;;;;;;13.50;12.00;;;;;;;17.70;72.41;99002.22;3590727;40;20044;-71
2021/07/11 07:14:25;;;;;;;12.35;11.02;;;;;;;17.85;72.54;98999.94;3599606;40;20081;-71
2021/07/11 07:16:52;;;;;;;15.27;11.23;;;;;;;17.89;72.20;98998.41;3589973;40;20294;-70
2021/07/11 07:19:22;;;;;;;12.65;11.13;;;;;;;18.03;71.86;99004.31;3590192;40;20052;-69
2021/07/11 07:21:50;;;;;;;13.00;10.75;;;;;;;18.04;71.69;99000.56;3599728;40;20324;-70
2021/07/11 07:24:17;;;;;;;12.93;11.57;;;;;;;18.10;71.16;99005.00;3591656;40;20328;-71
2021/07/11 07:26:45;;;;;;;14.27;12.07;;;;;;;18.19;71.17;99010.78;3603354;40;20129;-70
2021/07/11 07:29:13;;;;;;;13.88;11.60;;;;;;;18.33;71.27;99006.81;3603162;40;20039;-72
2021/07/11 07:31:42;;;;;;;13.07;11.30;;;;;;;18.42;70.39;99004.56;3602962;40;20044;-70
2021/07/11 07:34:10;;;;;;;18.25;14.15;;;;;;;18.44;70.55;99010.47;3602335;40;20032;-70
2021/07/11 07:36:39;;;;;;;15.70;10.48;;;;;;;18.37;70.91;99009.78;3590180;40;20055;-70
2021/07/11 07:39:07;;;;;;;11.25;10.10;;;;;;;18.41;69.93;99008.25;3590266;40;20321;-70
2021/07/11 07:41:35;;;;;;;10.65;9.55;;;;;;;18.43;70.23;99012.34;3599726;40;20109;-70
2021/07/11 07:44:04;;;;;;;10.88;9.13;;;;;;;18.63;70.16;99009.22;3599554;40;20056;-70
2021/07/11 07:46:32;;;;;;;12.18;10.48;;;;;;;18.70;70.06;99004.59;3599820;40;20039;-70
2021/07/11 07:49:00;;;;;;;14.65;10.13;;;;;;;18.83;69.08;99008.00;3603049;40;20039;-70
2021/07/11 07:51:28;;;;;;;8.93;8.10;;;;;;;18.81;69.20;99013.59;3602804;40;20063;-71
2021/07/11 07:53:58;;;;;;;9.38;8.30;;;;;;;18.80;68.60;99020.81;3601916;40;20047;-70
2021/07/11 07:56:25;;;;;;;9.05;8.15;;;;;;;18.80;68.52;99023.50;3599565;40;20047;-71
2021/07/11 07:58:53;;;;;;;9.23;7.68;;;;;;;18.87;68.51;99014.50;3599480;40;20529;-70
2021/07/11 08:01:21;;;;;;;8.95;8.10;;;;;;;18.86;67.99;99023.56;3589956;40;20052;-70
2021/07/11 08:03:49;;;;;;;8.40;7.57;;;;;;;18.87;67.86;99012.66;3589712;40;20044;-70
2021/07/11 08:06:17;;;;;;;9.02;7.85;;;;;;;18.92;67.87;99017.28;3589878;40;20052;-70
2021/07/11 08:08:45;;;;;;;8.20;7.40;;;;;;;18.92;67.42;99025.31;3599418;40;20044;-70
2021/07/11 08:11:14;;;;;;;8.30;7.50;;;;;;;18.91;67.53;99027.19;3599621;40;20359;-71
2021/07/11 08:13:42;;;;;;;8.00;7.20;;;;;;;18.96;67.37;99026.44;3589697;40;20032;-70
2021/07/11 08:16:10;;;;;;;9.10;7.75;;;;;;;18.92;67.25;99033.34;3589513;40;20043;-70
2021/07/11 08:18:38;;;;;;;7.47;6.78;;;;;;;18.90;66.94;99027.41;3599223;40;20048;-70
2021/07/11 08:21:06;;;;;;;8.85;7.88;;;;;;;18.91;67.35;99035.22;3590754;40;20400;-70
2021/07/11 08:23:35;;;;;;;10.13;7.20;;;;;;;18.91;67.29;99039.75;3598953;40;20036;-70
2021/07/11 08:26:03;;;;;;;9.07;8.18;;;;;;;18.80;67.47;99044.09;3599380;40;20055;-70
2021/07/11 08:28:32;;;;;;;8.65;7.63;;;;;;;18.94;67.08;99053.50;3589483;40;20044;-70
2021/07/11 08:31:00;;;;;;;8.40;7.43;;;;;;;19.02;67.06;99046.91;3598456;39;20051;-70
2021/07/11 08:33:28;;;;;;;9.45;8.45;;;;;;;19.15;66.35;99037.78;3599040;40;20317;-70
2021/07/11 08:35:56;;;;;;;7.32;6.60;;;;;;;19.31;65.88;99034.28;3589445;40;20072;-70
2021/07/11 08:38:23;;;;;;;7.20;6.50;;;;;;;19.30;65.60;99027.28;3589824;40;20039;-70
2021/07/11 08:40:51;;;;;;;6.53;5.78;;;;;;;19.42;65.00;99022.63;3598944;40;20362;-70
2021/07/11 08:43:20;;;;;;;6.65;5.63;;;;;;;19.57;63.90;99021.25;3598974;40;20048;-70
2021/07/11 08:45:49;;;;;;;5.75;5.25;;;;;;;19.60;63.25;99029.63;3589655;40;20052;-70
2021/07/11 08:48:18;;;;;;;5.28;4.82;;;;;;;19.65;63.15;99024.38;3589838;40;20069;-70
2021/07/11 08:50:45;;;;;;;6.95;5.57;;;;;;;19.74;62.53;99019.41;3598973;40;20410;-70
2021/07/11 08:53:14;;;;;;;6.13;5.53;;;;;;;19.90;60.84;99009.69;3598730;40;20075;-69
2021/07/11 08:55:44;;;;;;;4.50;4.10;;;;;;;20.00;60.21;99012.50;3598716;40;20156;-70
2021/07/11 08:58:14;;;;;;;4.53;4.13;;;;;;;20.08;59.86;99008.56;3598732;40;20059;-69
2021/07/11 09:00:42;;;;;;;6.47;4.03;;;;;;;20.16;60.01;99022.34;3598725;40;20047;-69
2021/07/11 09:03:13;;;;;;;4.47;4.03;;;;;;;20.21;59.92;99022.44;3598874;40;20109;-69
2021/07/11 09:05:41;;;;;;;6.25;4.13;;;;;;;20.44;59.46;99018.66;3598826;40;20324;-69
2021/07/11 09:08:19;;;;;;;8.27;4.68;;;;;;;20.66;58.94;99021.38;3598486;40;20048;-70
2021/07/11 09:10:49;;;;;;;4.68;4.25;;;;;;;20.76;57.13;99016.06;3598886;40;20391;-70
2021/07/11 09:13:22;;;;;;;4.90;4.50;;;;;;;20.95;56.45;99013.84;3598737;40;20046;-70
2021/07/11 09:15:52;;;;;;;5.20;4.05;;;;;;;21.06;57.11;99016.63;3598672;40;20378;-70
2021/07/11 09:18:26;;;;;;;4.30;3.58;;;;;;;21.13;56.18;99011.84;3589184;40;20040;-70
2021/07/11 09:20:57;;;;;;;4.40;4.00;;;;;;;21.14;56.37;99013.47;3598471;40;20056;-70
2021/07/11 09:23:26;;;;;;;4.03;3.72;;;;;;;21.24;56.12;99011.69;3589333;40;20048;-70
2021/07/11 09:26:03;;;;;;;5.15;3.63;;;;;;;21.49;55.00;99005.69;3598280;40;20036;-70
2021/07/11 09:28:32;;;;;;;3.88;3.47;;;;;;;21.57;54.77;99000.91;3589399;40;20058;-70
2021/07/11 09:31:08;;;;;;;3.78;3.47;;;;;;;21.55;54.24;98994.97;3598467;40;20394;-70
2021/07/11 09:33:40;;;;;;;4.18;3.30;;;;;;;21.61;53.92;98994.75;3598611;40;20051;-70
2021/07/11 09:36:12;;;;;;;5.18;3.53;;;;;;;21.58;54.16;99005.22;3598421;40;20044;-69
2021/07/11 09:38:40;;;;;;;3.55;3.25;;;;;;;21.67;53.52;99006.34;3589478;40;20051;-70
2021/07/11 09:41:22;;;;;;;3.85;3.25;;;;;;;21.57;52.56;99006.28;3598224;40;20048;-71
2021/07/11 09:43:52;;;;;;;6.30;3.30;;;;;;;21.58;52.63;99011.41;3590672;40;20051;-69
2021/07/11 09:46:21;;;;;;;3.60;3.30;;;;;;;21.66;52.74;99010.09;3599779;40;20047;-68
2021/07/11 09:48:51;;;;;;;3.60;3.30;;;;;;;21.86;53.09;99020.19;3600019;40;20331;-68
2021/07/11 09:51:22;;;;;;;3.65;3.35;;;;;;;21.77;52.53;99012.59;3599935;40;20044;-68
2021/07/11 09:53:52;;;;;;;7.45;3.88;;;;;;;21.69;52.83;99010.41;3599755;40;20048;-69
2021/07/11 09:56:37;;;;;;;4.75;3.33;;;;;;;21.58;51.79;98989.06;3599761;40;20075;-70
2021/07/11 09:59:07;;;;;;;2.88;2.50;;;;;;;21.75;51.57;98995.09;3590668;40;20056;-68
2021/07/11 10:01:36;;;;;;;3.15;2.85;;;;;;;21.90;51.45;98997.06;3599815;40;20083;-69
2021/07/11 10:04:09;;;;;;;3.50;3.20;;;;;;;22.09;51.53;98990.16;3600106;40;20093;-68
2021/07/11 10:06:38;;;;;;;3.75;2.97;;;;;;;22.37;50.61;98991.63;3599680;40;20094;-69
2021/07/11 10:09:08;;;;;;;5.28;2.75;;;;;;;22.59;50.60;98994.09;3599905;40;20065;-70
2021/07/11 10:11:36;;;;;;;2.50;2.30;;;;;;;22.49;50.00;98992.22;3599841;40;20044;-68
2021/07/11 10:14:05;;;;;;;5.15;2.70;;;;;;;22.50;50.22;98987.63;3600022;40;20047;-68
2021/07/11 10:16:35;;;;;;;2.58;2.38;;;;;;;22.61;50.20;99001.91;3590652;40;20036;-70
2021/07/11 10:19:09;;;;;;;2.60;2.40;;;;;;;22.75;50.56;98995.75;3600012;40;20031;-69
2021/07/11 10:21:39;;;;;;;;;;;;;;;22.85;49.90;98999.53;3600398;40;20055;-67
2021/07/11 10:24:17;;;;;;;2.78;2.58;;;;;;;22.95;49.09;98992.28;3599759;40;19989;-69
2021/07/11 10:26:47;;;;;;;3.35;2.17;;;;;;;23.03;48.55;98990.97;3590318;40;20044;-67
2021/07/11 10:29:17;;;;;;;6.07;5.43;;;;;;;23.04;48.87;98986.38;3599942;40;20118;-68
2021/07/11 10:31:46;;;;;;;3.17;2.10;;;;;;;22.82;48.50;98990.09;3599922;40;20408;-69
2021/07/11 10:34:28;;;;;;;2.53;2.33;;;;;;;22.83;48.81;98993.59;3590750;40;20065;-70
2021/07/11 10:36:56;;;;;;;2.60;2.10;;;;;;;22.91;48.30;98983.13;3590159;40;20060;-71
2021/07/11 10:39:34;;;;;;;2.35;2.15;;;;;;;23.06;48.75;98994.97;3590561;40;20405;-70
2021/07/11 10:42:02;;;;;;;3.20;2.15;;;;;;;23.04;48.42;98994.47;3590337;40;20059;-71
2021/07/11 10:44:30;;;;;;;4.55;3.05;;;;;;;23.05;48.25;98991.47;3599609;40;20056;-70
2021/07/11 10:47:01;;;;;;;8.88;2.15;;;;;;;23.08;46.79;98988.25;3599235;40;20087;-70
2021/07/11 10:49:32;;;;;;;3.28;1.83;;;;;;;22.94;46.63;98992.53;3599598;40;20359;-71
2021/07/11 10:52:01;;;;;;;2.72;2.20;;;;;;;22.88;47.14;98994.41;3599791;40;20309;-71
2021/07/11 10:54:31;;;;;;;3.17;2.33;;;;;;;23.12;47.66;98983.13;3599066;39;20298;-69
2021/07/11 10:57:00;;;;;;;2.88;2.10;;;;;;;23.21;47.81;98987.69;3590065;40;20453;-69
2021/07/11 10:59:30;;;;;;;2.10;2.00;;;;;;;23.01;47.44;98987.69;3599645;40;20032;-69
2021/07/11 11:01:59;;;;;;;1.85;1.60;;;;;;;22.87;47.50;98998.19;3599497;40;20072;-70
2021/07/11 11:04:29;;;;;;;2.42;1.80;;;;;;;23.08;47.49;98988.25;3589980;40;20036;-68
2021/07/11 11:07:13;;;;;;;2.35;1.90;;;;;;;23.41;45.61;98978.78;3599361;40;20044;-67
2021/07/11 11:09:43;;;;;;;3.17;2.00;;;;;;;23.29;46.84;98982.84;3590392;40;20077;-68
2021/07/11 11:12:26;;;;;;;3.97;3.13;;;;;;;23.11;47.32;98981.53;3599912;40;20059;-69
2021/07/11 11:14:59;;;;;;;5.90;4.60;;;;;;;23.00;47.43;98983.41;3593376;40;20044;-68
2021/07/11 11:17:34;;;;;;;2.50;2.30;;;;;;;22.75;46.71;98976.06;3601055;40;20035;-68
2021/07/11 11:20:06;;;;;;;3.25;2.10;;;;;;;22.58;46.66;98978.22;3603252;40;20100;-70
2021/07/11 11:22:35;;;;;;;1.80;1.70;;;;;;;22.51;46.55;98973.06;3603466;40;20036;-70
2021/07/11 11:25:04;;;;;;;2.30;2.10;;;;;;;22.58;47.59;98972.81;3594108;40;20422;-70
2021/07/11 11:27:37;;;;;;;2.47;2.15;;;;;;;22.65;47.13;98966.06;3593203;40;20393;-70
2021/07/11 11:30:14;;;;;;;3.33;2.00;;;;;;;22.77;46.67;98963.13;3593947;40;20057;-69
2021/07/11 11:32:43;;;;;;;3.85;1.63;;;;;;;22.98;46.35;98959.41;3593579;40;20028;-69
2021/07/11 11:35:18;;;;;;;1.83;1.73;;;;;;;23.21;45.99;98959.94;3593844;40;20063;-70
2021/07/11 11:37:48;;;;;;;1.92;1.70;;;;;;;23.24;46.22;98954.81;3602489;40;20051;-69
2021/07/11 11:40:17;;;;;;;3.47;2.92;;;;;;;23.47;45.89;98950.72;3602336;40;20324;-68
2021/07/11 11:42:46;;;;;;;3.75;3.45;;;;;;;23.83;45.87;98952.53;3600285;40;20086;-69